sensor_id;sensor_type;location;lat;lon;timestamp;temperature;humidity
29341;DHT22;16337;59.536;13.468;2023-02-28T00:00:18;-1.70;99.90
29341;DHT22;16337;59.536;13.468;2023-02-28T00:02:45;-1.70;99.90
29341;DHT22;16337;59.536;13.468;2023-02-28T00:05:13;-1.60;99.90
29341;DHT22;16337;59.536;13.468;2023-02-28T00:07:39;-1.70;99.90
29341;DHT22;16337;59.536;13.468;2023-02-28T00:10:06;-1.80;99.90
29341;DHT22;16337;59.536;13.468;2023-02-28T00:12:34;-1.90;99.90
29341;DHT22;16337;59.536;13.468;2023-02-28T00:15:00;-1.90;99.90
29341;DHT22;16337;59.536;13.468;2023-02-28T00:17:25;-2.00;99.90
29341;DHT22;16337;59.536;13.468;2023-02-28T00:19:51;-1.90;99.90
29341;DHT22;16337;59.536;13.468;2023-02-28T00:22:19;-1.90;99.90
29341;DHT22;16337;59.536;13.468;2023-02-28T00:24:46;-2.00;99.90
29341;DHT22;16337;59.536;13.468;2023-02-28T00:27:12;-1.90;99.90
29341;DHT22;16337;59.536;13.468;2023-02-28T00:29:38;-2.00;99.90
29341;DHT22;16337;59.536;13.468;2023-02-28T00:32:05;-1.90;99.90
29341;DHT22;16337;59.536;13.468;2023-02-28T00:34:30;-1.70;99.90
29341;DHT22;16337;59.536;13.468;2023-02-28T00:37:02;-1.60;99.90
29341;DHT22;16337;59.536;13.468;2023-02-28T00:39:28;-1.70;99.90
29341;DHT22;16337;59.536;13.468;2023-02-28T00:41:54;-1.70;99.90
29341;DHT22;16337;59.536;13.468;2023-02-28T00:44:19;-1.80;99.90
29341;DHT22;16337;59.536;13.468;2023-02-28T00:46:47;-1.80;99.90
29341;DHT22;16337;59.536;13.468;2023-02-28T00:49:12;-1.80;99.90
29341;DHT22;16337;59.536;13.468;2023-02-28T00:51:38;-2.00;99.90
29341;DHT22;16337;59.536;13.468;2023-02-28T00:54:04;-2.00;99.90
29341;DHT22;16337;59.536;13.468;2023-02-28T00:56:30;-2.20;99.90
29341;DHT22;16337;59.536;13.468;2023-02-28T00:58:55;-2.30;99.90
29341;DHT22;16337;59.536;13.468;2023-02-28T01:01:21;-2.40;99.90
29341;DHT22;16337;59.536;13.468;2023-02-28T01:03:47;-2.50;99.90
29341;DHT22;16337;59.536;13.468;2023-02-28T01:06:12;-2.70;99.90
29341;DHT22;16337;59.536;13.468;2023-02-28T01:08:38;-2.80;99.90
29341;DHT22;16337;59.536;13.468;2023-02-28T01:11:09;-2.90;99.90
29341;DHT22;16337;59.536;13.468;2023-02-28T01:13:36;-2.90;99.90
29341;DHT22;16337;59.536;13.468;2023-02-28T01:16:02;-3.00;99.90
29341;DHT22;16337;59.536;13.468;2023-02-28T01:18:28;-3.00;99.90
29341;DHT22;16337;59.536;13.468;2023-02-28T01:20:54;-2.90;99.90
29341;DHT22;16337;59.536;13.468;2023-02-28T01:23:21;-2.90;99.90
29341;DHT22;16337;59.536;13.468;2023-02-28T01:25:49;-2.80;99.90
29341;DHT22;16337;59.536;13.468;2023-02-28T01:28:15;-2.80;99.90
29341;DHT22;16337;59.536;13.468;2023-02-28T01:31:07;-2.90;99.90
29341;DHT22;16337;59.536;13.468;2023-02-28T01:33:34;-2.90;99.90
29341;DHT22;16337;59.536;13.468;2023-02-28T01:36:06;-3.00;99.90
29341;DHT22;16337;59.536;13.468;2023-02-28T01:38:32;-3.00;99.90
29341;DHT22;16337;59.536;13.468;2023-02-28T01:40:58;-3.10;99.90
29341;DHT22;16337;59.536;13.468;2023-02-28T01:43:29;-3.10;99.90
29341;DHT22;16337;59.536;13.468;2023-02-28T01:45:56;-3.20;99.90
29341;DHT22;16337;59.536;13.468;2023-02-28T01:48:29;-3.20;99.90
29341;DHT22;16337;59.536;13.468;2023-02-28T01:50:59;-3.20;99.90
29341;DHT22;16337;59.536;13.468;2023-02-28T01:53:30;-3.20;99.90
29341;DHT22;16337;59.536;13.468;2023-02-28T01:55:57;-3.20;99.90
29341;DHT22;16337;59.536;13.468;2023-02-28T01:58:23;-3.30;99.90
29341;DHT22;16337;59.536;13.468;2023-02-28T02:00:49;-3.30;99.90
29341;DHT22;16337;59.536;13.468;2023-02-28T02:03:17;-3.30;99.90
29341;DHT22;16337;59.536;13.468;2023-02-28T02:05:45;-3.10;99.90
29341;DHT22;16337;59.536;13.468;2023-02-28T02:08:21;-2.90;99.90
29341;DHT22;16337;59.536;13.468;2023-02-28T02:10:49;-2.90;99.90
29341;DHT22;16337;59.536;13.468;2023-02-28T02:18:44;-3.00;99.90
29341;DHT22;16337;59.536;13.468;2023-02-28T02:24:28;-3.20;99.90
29341;DHT22;16337;59.536;13.468;2023-02-28T02:40:17;-3.20;99.90
29341;DHT22;16337;59.536;13.468;2023-02-28T02:45:51;-3.30;99.90
29341;DHT22;16337;59.536;13.468;2023-02-28T02:48:20;-3.30;99.90
29341;DHT22;16337;59.536;13.468;2023-02-28T02:51:01;-3.30;99.90
29341;DHT22;16337;59.536;13.468;2023-02-28T02:53:39;-3.40;99.90
29341;DHT22;16337;59.536;13.468;2023-02-28T02:56:07;-3.30;99.90
29341;DHT22;16337;59.536;13.468;2023-02-28T02:58:40;-3.20;99.90
29341;DHT22;16337;59.536;13.468;2023-02-28T03:01:09;-3.10;99.90
29341;DHT22;16337;59.536;13.468;2023-02-28T03:03:36;-3.00;99.90
29341;DHT22;16337;59.536;13.468;2023-02-28T03:06:02;-2.90;99.90
29341;DHT22;16337;59.536;13.468;2023-02-28T03:08:33;-2.90;99.90
29341;DHT22;16337;59.536;13.468;2023-02-28T03:11:01;-3.00;99.90
29341;DHT22;16337;59.536;13.468;2023-02-28T03:16:38;-3.20;99.90
29341;DHT22;16337;59.536;13.468;2023-02-28T03:22:01;-3.30;99.90
29341;DHT22;16337;59.536;13.468;2023-02-28T03:27:24;-3.40;99.90
29341;DHT22;16337;59.536;13.468;2023-02-28T03:30:03;-3.40;99.90
29341;DHT22;16337;59.536;13.468;2023-02-28T03:32:37;-3.40;99.90
29341;DHT22;16337;59.536;13.468;2023-02-28T03:35:20;-3.40;99.90
29341;DHT22;16337;59.536;13.468;2023-02-28T03:38:00;-3.50;99.90
29341;DHT22;16337;59.536;13.468;2023-02-28T03:40:33;-3.60;99.90
29341;DHT22;16337;59.536;13.468;2023-02-28T03:43:04;-3.60;99.90
29341;DHT22;16337;59.536;13.468;2023-02-28T03:45:35;-3.60;99.90
29341;DHT22;16337;59.536;13.468;2023-02-28T03:50:47;-3.60;99.90
29341;DHT22;16337;59.536;13.468;2023-02-28T03:53:21;-3.70;99.90
29341;DHT22;16337;59.536;13.468;2023-02-28T03:55:52;-3.80;99.90
29341;DHT22;16337;59.536;13.468;2023-02-28T03:58:34;-3.80;99.90
29341;DHT22;16337;59.536;13.468;2023-02-28T04:01:12;-3.80;99.90
29341;DHT22;16337;59.536;13.468;2023-02-28T04:03:38;-3.80;99.90
29341;DHT22;16337;59.536;13.468;2023-02-28T04:06:07;-3.80;99.90
29341;DHT22;16337;59.536;13.468;2023-02-28T04:08:33;-3.80;99.90
29341;DHT22;16337;59.536;13.468;2023-02-28T04:11:24;-3.80;99.90
29341;DHT22;16337;59.536;13.468;2023-02-28T04:13:52;-3.80;99.90
29341;DHT22;16337;59.536;13.468;2023-02-28T04:16:19;-3.80;99.90
29341;DHT22;16337;59.536;13.468;2023-02-28T04:18:44;-3.70;99.90
29341;DHT22;16337;59.536;13.468;2023-02-28T04:21:11;-3.50;99.90
29341;DHT22;16337;59.536;13.468;2023-02-28T04:23:36;-3.30;99.90
29341;DHT22;16337;59.536;13.468;2023-02-28T04:26:03;-3.10;99.90
29341;DHT22;16337;59.536;13.468;2023-02-28T04:28:29;-3.10;99.90
29341;DHT22;16337;59.536;13.468;2023-02-28T04:31:01;-3.20;99.90
29341;DHT22;16337;59.536;13.468;2023-02-28T04:33:27;-3.30;99.90
29341;DHT22;16337;59.536;13.468;2023-02-28T04:36:03;-3.30;99.90
29341;DHT22;16337;59.536;13.468;2023-02-28T04:38:32;-3.40;99.90
29341;DHT22;16337;59.536;13.468;2023-02-28T04:40:59;-3.50;99.90
29341;DHT22;16337;59.536;13.468;2023-02-28T04:43:26;-3.60;99.90
29341;DHT22;16337;59.536;13.468;2023-02-28T04:45:53;-3.70;99.90
29341;DHT22;16337;59.536;13.468;2023-02-28T04:48:27;-3.70;99.90
29341;DHT22;16337;59.536;13.468;2023-02-28T04:50:53;-3.70;99.90
29341;DHT22;16337;59.536;13.468;2023-02-28T04:53:20;-3.70;99.90
29341;DHT22;16337;59.536;13.468;2023-02-28T04:55:46;-3.70;99.90
29341;DHT22;16337;59.536;13.468;2023-02-28T04:58:12;-3.70;99.90
29341;DHT22;16337;59.536;13.468;2023-02-28T05:00:38;-3.70;99.90
29341;DHT22;16337;59.536;13.468;2023-02-28T05:03:04;-3.70;99.90
29341;DHT22;16337;59.536;13.468;2023-02-28T05:05:30;-3.60;99.90
29341;DHT22;16337;59.536;13.468;2023-02-28T05:07:56;-3.40;99.90
29341;DHT22;16337;59.536;13.468;2023-02-28T05:10:24;-3.40;99.90
29341;DHT22;16337;59.536;13.468;2023-02-28T05:12:50;-3.40;99.90
29341;DHT22;16337;59.536;13.468;2023-02-28T05:15:17;-3.50;99.90
29341;DHT22;16337;59.536;13.468;2023-02-28T05:17:43;-3.60;99.90
29341;DHT22;16337;59.536;13.468;2023-02-28T05:20:10;-3.50;99.90
29341;DHT22;16337;59.536;13.468;2023-02-28T05:22:37;-3.60;99.90
29341;DHT22;16337;59.536;13.468;2023-02-28T05:25:03;-3.30;99.90
29341;DHT22;16337;59.536;13.468;2023-02-28T05:27:30;-3.30;99.90
29341;DHT22;16337;59.536;13.468;2023-02-28T05:29:56;-3.30;99.90
29341;DHT22;16337;59.536;13.468;2023-02-28T05:32:22;-3.40;99.90
29341;DHT22;16337;59.536;13.468;2023-02-28T05:34:47;-3.50;99.90
29341;DHT22;16337;59.536;13.468;2023-02-28T05:37:14;-3.60;99.90
29341;DHT22;16337;59.536;13.468;2023-02-28T05:39:41;-3.60;99.90
29341;DHT22;16337;59.536;13.468;2023-02-28T05:42:07;-3.70;99.90
29341;DHT22;16337;59.536;13.468;2023-02-28T05:44:33;-3.80;99.90
29341;DHT22;16337;59.536;13.468;2023-02-28T05:46:59;-3.80;99.90
29341;DHT22;16337;59.536;13.468;2023-02-28T05:49:25;-4.00;99.90
29341;DHT22;16337;59.536;13.468;2023-02-28T05:51:50;-4.00;99.90
29341;DHT22;16337;59.536;13.468;2023-02-28T05:54:16;-3.90;99.90
29341;DHT22;16337;59.536;13.468;2023-02-28T05:56:42;-3.90;99.90
29341;DHT22;16337;59.536;13.468;2023-02-28T05:59:13;-3.90;99.90
29341;DHT22;16337;59.536;13.468;2023-02-28T06:01:41;-3.80;99.90
29341;DHT22;16337;59.536;13.468;2023-02-28T06:04:10;-3.80;99.90
29341;DHT22;16337;59.536;13.468;2023-02-28T06:06:36;-3.90;99.90
29341;DHT22;16337;59.536;13.468;2023-02-28T06:09:03;-3.90;99.90
29341;DHT22;16337;59.536;13.468;2023-02-28T06:11:30;-3.90;99.90
29341;DHT22;16337;59.536;13.468;2023-02-28T06:13:57;-4.00;99.90
29341;DHT22;16337;59.536;13.468;2023-02-28T06:16:26;-4.00;99.90
29341;DHT22;16337;59.536;13.468;2023-02-28T06:18:52;-4.10;99.90
29341;DHT22;16337;59.536;13.468;2023-02-28T06:21:18;-4.00;99.90
29341;DHT22;16337;59.536;13.468;2023-02-28T06:23:44;-4.00;99.90
29341;DHT22;16337;59.536;13.468;2023-02-28T06:26:10;-4.00;99.90
29341;DHT22;16337;59.536;13.468;2023-02-28T06:28:36;-4.00;99.90
29341;DHT22;16337;59.536;13.468;2023-02-28T06:31:07;-4.10;99.90
29341;DHT22;16337;59.536;13.468;2023-02-28T06:33:33;-4.10;99.90
29341;DHT22;16337;59.536;13.468;2023-02-28T06:35:59;-4.10;99.90
29341;DHT22;16337;59.536;13.468;2023-02-28T06:38:24;-4.10;99.90
29341;DHT22;16337;59.536;13.468;2023-02-28T06:40:57;-4.10;99.90
29341;DHT22;16337;59.536;13.468;2023-02-28T06:43:24;-4.10;99.90
29341;DHT22;16337;59.536;13.468;2023-02-28T06:45:54;-4.10;99.90
29341;DHT22;16337;59.536;13.468;2023-02-28T06:48:20;-4.00;99.90
29341;DHT22;16337;59.536;13.468;2023-02-28T06:50:45;-4.00;99.90
29341;DHT22;16337;59.536;13.468;2023-02-28T06:53:12;-3.80;99.90
29341;DHT22;16337;59.536;13.468;2023-02-28T06:55:39;-3.70;99.90
29341;DHT22;16337;59.536;13.468;2023-02-28T06:58:05;-3.50;99.90
29341;DHT22;16337;59.536;13.468;2023-02-28T07:00:44;-3.30;99.90
29341;DHT22;16337;59.536;13.468;2023-02-28T07:03:11;-3.30;99.90
29341;DHT22;16337;59.536;13.468;2023-02-28T07:05:39;-3.20;99.90
29341;DHT22;16337;59.536;13.468;2023-02-28T07:08:05;-3.10;99.90
29341;DHT22;16337;59.536;13.468;2023-02-28T07:10:32;-3.10;99.90
29341;DHT22;16337;59.536;13.468;2023-02-28T07:12:59;-3.00;99.90
29341;DHT22;16337;59.536;13.468;2023-02-28T07:15:24;-3.00;99.90
29341;DHT22;16337;59.536;13.468;2023-02-28T07:17:50;-2.90;99.90
29341;DHT22;16337;59.536;13.468;2023-02-28T07:20:17;-2.90;99.90
29341;DHT22;16337;59.536;13.468;2023-02-28T07:22:42;-2.90;99.90
29341;DHT22;16337;59.536;13.468;2023-02-28T07:25:09;-2.80;99.90
29341;DHT22;16337;59.536;13.468;2023-02-28T07:27:34;-2.80;99.90
29341;DHT22;16337;59.536;13.468;2023-02-28T07:30:00;-2.70;99.90
29341;DHT22;16337;59.536;13.468;2023-02-28T07:32:27;-2.70;99.90
29341;DHT22;16337;59.536;13.468;2023-02-28T07:34:53;-2.60;99.90
29341;DHT22;16337;59.536;13.468;2023-02-28T07:37:19;-2.50;99.90
29341;DHT22;16337;59.536;13.468;2023-02-28T07:39:45;-2.40;99.90
29341;DHT22;16337;59.536;13.468;2023-02-28T07:42:11;-2.30;99.90
29341;DHT22;16337;59.536;13.468;2023-02-28T07:44:39;-2.10;99.90
29341;DHT22;16337;59.536;13.468;2023-02-28T07:47:09;-2.00;99.90
29341;DHT22;16337;59.536;13.468;2023-02-28T07:49:38;-1.90;99.90
29341;DHT22;16337;59.536;13.468;2023-02-28T07:52:06;-1.80;99.90
29341;DHT22;16337;59.536;13.468;2023-02-28T07:54:32;-1.70;99.90
29341;DHT22;16337;59.536;13.468;2023-02-28T07:56:59;-1.50;99.90
29341;DHT22;16337;59.536;13.468;2023-02-28T07:59:25;-1.40;99.90
29341;DHT22;16337;59.536;13.468;2023-02-28T08:01:50;-1.20;99.90
29341;DHT22;16337;59.536;13.468;2023-02-28T08:04:18;-1.10;99.90
29341;DHT22;16337;59.536;13.468;2023-02-28T08:06:44;-0.90;99.90
29341;DHT22;16337;59.536;13.468;2023-02-28T08:09:09;-0.70;99.90
29341;DHT22;16337;59.536;13.468;2023-02-28T08:11:35;-0.60;99.90
29341;DHT22;16337;59.536;13.468;2023-02-28T08:14:02;-0.40;99.90
29341;DHT22;16337;59.536;13.468;2023-02-28T08:16:27;-0.30;99.90
29341;DHT22;16337;59.536;13.468;2023-02-28T08:18:54;-0.10;99.90
29341;DHT22;16337;59.536;13.468;2023-02-28T08:21:20;0.20;99.90
29341;DHT22;16337;59.536;13.468;2023-02-28T08:23:48;0.40;99.90
29341;DHT22;16337;59.536;13.468;2023-02-28T08:26:15;0.60;99.90
29341;DHT22;16337;59.536;13.468;2023-02-28T08:28:41;0.70;99.90
29341;DHT22;16337;59.536;13.468;2023-02-28T08:31:11;0.90;99.90
29341;DHT22;16337;59.536;13.468;2023-02-28T08:33:38;1.10;99.90
29341;DHT22;16337;59.536;13.468;2023-02-28T08:36:05;1.30;99.90
29341;DHT22;16337;59.536;13.468;2023-02-28T08:38:31;1.50;99.90
29341;DHT22;16337;59.536;13.468;2023-02-28T08:40:58;1.70;99.90
29341;DHT22;16337;59.536;13.468;2023-02-28T08:43:24;1.90;99.90
29341;DHT22;16337;59.536;13.468;2023-02-28T08:45:54;2.20;99.90
29341;DHT22;16337;59.536;13.468;2023-02-28T08:48:25;2.40;99.90
29341;DHT22;16337;59.536;13.468;2023-02-28T08:50:58;2.60;99.90
29341;DHT22;16337;59.536;13.468;2023-02-28T08:53:25;2.80;99.90
29341;DHT22;16337;59.536;13.468;2023-02-28T08:56:05;3.00;99.90
29341;DHT22;16337;59.536;13.468;2023-02-28T08:58:32;3.30;99.90
29341;DHT22;16337;59.536;13.468;2023-02-28T09:00:58;3.60;99.90
29341;DHT22;16337;59.536;13.468;2023-02-28T09:03:24;3.90;99.90
29341;DHT22;16337;59.536;13.468;2023-02-28T09:05:58;4.00;99.90
29341;DHT22;16337;59.536;13.468;2023-02-28T09:08:26;4.20;99.90
29341;DHT22;16337;59.536;13.468;2023-02-28T09:10:52;4.50;99.90
29341;DHT22;16337;59.536;13.468;2023-02-28T09:13:20;4.80;99.90
29341;DHT22;16337;59.536;13.468;2023-02-28T09:15:46;5.10;99.90
29341;DHT22;16337;59.536;13.468;2023-02-28T09:18:12;5.40;99.90
29341;DHT22;16337;59.536;13.468;2023-02-28T09:20:39;5.70;99.90
29341;DHT22;16337;59.536;13.468;2023-02-28T09:23:06;6.00;99.90
29341;DHT22;16337;59.536;13.468;2023-02-28T09:25:33;6.30;99.90
29341;DHT22;16337;59.536;13.468;2023-02-28T09:27:59;6.40;99.90
29341;DHT22;16337;59.536;13.468;2023-02-28T09:30:25;6.50;99.90
29341;DHT22;16337;59.536;13.468;2023-02-28T09:32:50;6.70;99.90
29341;DHT22;16337;59.536;13.468;2023-02-28T09:35:26;7.00;99.90
29341;DHT22;16337;59.536;13.468;2023-02-28T09:37:52;7.30;99.90
29341;DHT22;16337;59.536;13.468;2023-02-28T09:40:20;7.40;99.90
29341;DHT22;16337;59.536;13.468;2023-02-28T09:42:49;7.70;99.90
29341;DHT22;16337;59.536;13.468;2023-02-28T09:45:26;7.90;99.90
29341;DHT22;16337;59.536;13.468;2023-02-28T09:47:56;8.00;99.90
29341;DHT22;16337;59.536;13.468;2023-02-28T09:50:40;8.20;99.90
29341;DHT22;16337;59.536;13.468;2023-02-28T09:55:51;8.60;99.90
29341;DHT22;16337;59.536;13.468;2023-02-28T09:58:28;8.50;99.90
29341;DHT22;16337;59.536;13.468;2023-02-28T10:06:51;8.90;99.90
29341;DHT22;16337;59.536;13.468;2023-02-28T10:09:24;8.80;99.90
29341;DHT22;16337;59.536;13.468;2023-02-28T10:11:54;8.70;99.90
29341;DHT22;16337;59.536;13.468;2023-02-28T10:14:24;8.60;99.90
29341;DHT22;16337;59.536;13.468;2023-02-28T10:16:55;8.40;99.90
29341;DHT22;16337;59.536;13.468;2023-02-28T10:22:31;8.40;99.90
29341;DHT22;16337;59.536;13.468;2023-02-28T10:25:00;8.40;99.90
29341;DHT22;16337;59.536;13.468;2023-02-28T10:27:32;8.30;99.90
29341;DHT22;16337;59.536;13.468;2023-02-28T10:30:02;8.50;99.90
29341;DHT22;16337;59.536;13.468;2023-02-28T10:32:33;8.40;99.90
29341;DHT22;16337;59.536;13.468;2023-02-28T10:35:07;8.50;99.90
29341;DHT22;16337;59.536;13.468;2023-02-28T10:37:32;8.80;99.90
29341;DHT22;16337;59.536;13.468;2023-02-28T10:40:24;8.80;99.90
29341;DHT22;16337;59.536;13.468;2023-02-28T10:43:04;8.90;99.90
29341;DHT22;16337;59.536;13.468;2023-02-28T10:45:34;9.20;99.90
29341;DHT22;16337;59.536;13.468;2023-02-28T10:48:05;9.30;99.90
29341;DHT22;16337;59.536;13.468;2023-02-28T10:50:45;9.40;99.90
29341;DHT22;16337;59.536;13.468;2023-02-28T10:55:41;9.50;99.90
29341;DHT22;16337;59.536;13.468;2023-02-28T10:58:24;9.70;99.90
29341;DHT22;16337;59.536;13.468;2023-02-28T11:00:51;9.80;99.90
29341;DHT22;16337;59.536;13.468;2023-02-28T11:05:53;9.90;99.90
29341;DHT22;16337;59.536;13.468;2023-02-28T11:08:19;10.10;99.90
29341;DHT22;16337;59.536;13.468;2023-02-28T11:10:47;10.50;99.90
29341;DHT22;16337;59.536;13.468;2023-02-28T11:13:27;10.60;99.90
29341;DHT22;16337;59.536;13.468;2023-02-28T11:15:57;10.60;99.90
29341;DHT22;16337;59.536;13.468;2023-02-28T11:18:47;10.60;99.90
29341;DHT22;16337;59.536;13.468;2023-02-28T11:21:37;10.60;99.90
29341;DHT22;16337;59.536;13.468;2023-02-28T11:24:30;10.70;99.90
29341;DHT22;16337;59.536;13.468;2023-02-28T11:26:57;10.80;99.90
29341;DHT22;16337;59.536;13.468;2023-02-28T11:29:26;10.90;99.90
29341;DHT22;16337;59.536;13.468;2023-02-28T11:32:16;11.00;99.90
29341;DHT22;16337;59.536;13.468;2023-02-28T11:34:43;11.10;99.90
29341;DHT22;16337;59.536;13.468;2023-02-28T11:37:17;11.10;99.90
29341;DHT22;16337;59.536;13.468;2023-02-28T11:39:44;11.20;99.90
29341;DHT22;16337;59.536;13.468;2023-02-28T11:48:15;10.90;99.90
29341;DHT22;16337;59.536;13.468;2023-02-28T12:07:26;10.90;99.90
29341;DHT22;16337;59.536;13.468;2023-02-28T12:10:23;11.00;99.90
29341;DHT22;16337;59.536;13.468;2023-02-28T12:18:39;10.80;99.90
29341;DHT22;16337;59.536;13.468;2023-02-28T12:21:14;10.70;99.90
29341;DHT22;16337;59.536;13.468;2023-02-28T12:32:14;11.00;99.90
29341;DHT22;16337;59.536;13.468;2023-02-28T12:34:52;10.90;99.90
29341;DHT22;16337;59.536;13.468;2023-02-28T12:37:29;10.70;99.90
29341;DHT22;16337;59.536;13.468;2023-02-28T12:40:02;10.90;99.90
29341;DHT22;16337;59.536;13.468;2023-02-28T12:42:34;11.00;99.90
29341;DHT22;16337;59.536;13.468;2023-02-28T12:45:07;11.20;99.90
29341;DHT22;16337;59.536;13.468;2023-02-28T12:47:37;11.20;99.90
29341;DHT22;16337;59.536;13.468;2023-02-28T12:50:06;10.90;99.90
29341;DHT22;16337;59.536;13.468;2023-02-28T12:52:56;10.70;99.90
29341;DHT22;16337;59.536;13.468;2023-02-28T13:09:13;10.70;99.90
29341;DHT22;16337;59.536;13.468;2023-02-28T13:11:49;10.60;99.90
29341;DHT22;16337;59.536;13.468;2023-02-28T13:17:11;10.50;99.90
29341;DHT22;16337;59.536;13.468;2023-02-28T13:19:56;10.30;99.90
29341;DHT22;16337;59.536;13.468;2023-02-28T13:24:52;10.00;99.90
29341;DHT22;16337;59.536;13.468;2023-02-28T13:29:51;9.50;99.90
29341;DHT22;16337;59.536;13.468;2023-02-28T13:32:35;9.20;99.90
29341;DHT22;16337;59.536;13.468;2023-02-28T13:37:35;9.00;99.90
29341;DHT22;16337;59.536;13.468;2023-02-28T13:42:49;8.70;99.90
29341;DHT22;16337;59.536;13.468;2023-02-28T13:45:27;8.80;99.90
29341;DHT22;16337;59.536;13.468;2023-02-28T14:07:28;7.90;99.90
29341;DHT22;16337;59.536;13.468;2023-02-28T14:10:07;7.80;99.90
29341;DHT22;16337;59.536;13.468;2023-02-28T14:13:00;7.70;99.90
29341;DHT22;16337;59.536;13.468;2023-02-28T14:18:27;7.50;99.90
29341;DHT22;16337;59.536;13.468;2023-02-28T14:20:58;7.30;99.90
29341;DHT22;16337;59.536;13.468;2023-02-28T14:26:53;7.50;99.90
29341;DHT22;16337;59.536;13.468;2023-02-28T14:32:41;7.30;99.90
29341;DHT22;16337;59.536;13.468;2023-02-28T14:37:48;7.30;99.90
29341;DHT22;16337;59.536;13.468;2023-02-28T14:40:27;7.30;99.90
29341;DHT22;16337;59.536;13.468;2023-02-28T14:43:01;7.20;99.90
29341;DHT22;16337;59.536;13.468;2023-02-28T14:45:35;7.10;99.90
29341;DHT22;16337;59.536;13.468;2023-02-28T14:48:05;7.00;99.90
29341;DHT22;16337;59.536;13.468;2023-02-28T14:50:36;7.00;99.90
29341;DHT22;16337;59.536;13.468;2023-02-28T14:53:03;6.80;99.90
29341;DHT22;16337;59.536;13.468;2023-02-28T14:55:31;6.70;99.90
29341;DHT22;16337;59.536;13.468;2023-02-28T14:58:04;6.70;99.90
29341;DHT22;16337;59.536;13.468;2023-02-28T15:00:34;6.70;99.90
29341;DHT22;16337;59.536;13.468;2023-02-28T15:03:01;6.70;99.90
29341;DHT22;16337;59.536;13.468;2023-02-28T15:05:37;6.50;99.90
29341;DHT22;16337;59.536;13.468;2023-02-28T15:10:31;6.20;99.90
29341;DHT22;16337;59.536;13.468;2023-02-28T15:15:55;5.80;99.90
29341;DHT22;16337;59.536;13.468;2023-02-28T15:20:57;5.70;99.90
29341;DHT22;16337;59.536;13.468;2023-02-28T15:23:24;5.90;99.90
29341;DHT22;16337;59.536;13.468;2023-02-28T15:25:51;5.80;99.90
29341;DHT22;16337;59.536;13.468;2023-02-28T15:28:20;5.60;99.90
29341;DHT22;16337;59.536;13.468;2023-02-28T15:30:59;5.80;99.90
29341;DHT22;16337;59.536;13.468;2023-02-28T15:33:30;5.60;99.90
29341;DHT22;16337;59.536;13.468;2023-02-28T15:36:15;5.50;99.90
29341;DHT22;16337;59.536;13.468;2023-02-28T15:38:43;5.50;99.90
29341;DHT22;16337;59.536;13.468;2023-02-28T15:41:41;5.40;99.90
29341;DHT22;16337;59.536;13.468;2023-02-28T15:49:25;5.70;99.90
29341;DHT22;16337;59.536;13.468;2023-02-28T15:51:52;5.90;99.90
29341;DHT22;16337;59.536;13.468;2023-02-28T15:54:27;5.90;99.90
29341;DHT22;16337;59.536;13.468;2023-02-28T15:56:56;5.70;99.90
29341;DHT22;16337;59.536;13.468;2023-02-28T15:59:28;5.40;99.90
29341;DHT22;16337;59.536;13.468;2023-02-28T16:04:35;5.10;99.90
29341;DHT22;16337;59.536;13.468;2023-02-28T16:07:03;5.10;99.90
29341;DHT22;16337;59.536;13.468;2023-02-28T16:09:29;4.90;99.90
29341;DHT22;16337;59.536;13.468;2023-02-28T16:12:00;4.70;99.90
29341;DHT22;16337;59.536;13.468;2023-02-28T16:14:30;4.70;99.90
29341;DHT22;16337;59.536;13.468;2023-02-28T16:17:09;4.60;99.90
29341;DHT22;16337;59.536;13.468;2023-02-28T16:19:42;4.50;99.90
29341;DHT22;16337;59.536;13.468;2023-02-28T16:22:09;4.30;99.90
29341;DHT22;16337;59.536;13.468;2023-02-28T16:24:35;4.00;99.90
29341;DHT22;16337;59.536;13.468;2023-02-28T16:27:01;3.90;99.90
29341;DHT22;16337;59.536;13.468;2023-02-28T16:29:31;3.80;99.90
29341;DHT22;16337;59.536;13.468;2023-02-28T16:31:58;3.70;99.90
29341;DHT22;16337;59.536;13.468;2023-02-28T16:34:24;3.70;99.90
29341;DHT22;16337;59.536;13.468;2023-02-28T16:36:50;3.50;99.90
29341;DHT22;16337;59.536;13.468;2023-02-28T16:39:16;3.40;99.90
29341;DHT22;16337;59.536;13.468;2023-02-28T16:41:43;3.30;99.90
29341;DHT22;16337;59.536;13.468;2023-02-28T16:44:14;3.10;99.90
29341;DHT22;16337;59.536;13.468;2023-02-28T16:46:43;3.00;99.90
29341;DHT22;16337;59.536;13.468;2023-02-28T16:49:12;2.90;99.90
29341;DHT22;16337;59.536;13.468;2023-02-28T16:51:38;2.90;99.90
29341;DHT22;16337;59.536;13.468;2023-02-28T16:54:04;2.80;99.90
29341;DHT22;16337;59.536;13.468;2023-02-28T16:56:30;2.80;99.90
29341;DHT22;16337;59.536;13.468;2023-02-28T16:59:00;2.80;99.90
29341;DHT22;16337;59.536;13.468;2023-02-28T17:01:26;2.60;99.90
29341;DHT22;16337;59.536;13.468;2023-02-28T17:03:53;2.50;99.90
29341;DHT22;16337;59.536;13.468;2023-02-28T17:06:19;2.40;99.90
29341;DHT22;16337;59.536;13.468;2023-02-28T17:08:48;2.30;99.90
29341;DHT22;16337;59.536;13.468;2023-02-28T17:11:14;2.20;99.90
29341;DHT22;16337;59.536;13.468;2023-02-28T17:13:39;2.20;99.90
29341;DHT22;16337;59.536;13.468;2023-02-28T17:16:05;2.20;99.90
29341;DHT22;16337;59.536;13.468;2023-02-28T17:18:31;2.30;99.90
29341;DHT22;16337;59.536;13.468;2023-02-28T17:21:00;2.20;99.90
29341;DHT22;16337;59.536;13.468;2023-02-28T17:23:26;2.10;99.90
29341;DHT22;16337;59.536;13.468;2023-02-28T17:25:51;2.10;99.90
29341;DHT22;16337;59.536;13.468;2023-02-28T17:28:21;2.00;99.90
29341;DHT22;16337;59.536;13.468;2023-02-28T17:30:47;1.90;99.90
29341;DHT22;16337;59.536;13.468;2023-02-28T17:33:15;1.90;99.90
29341;DHT22;16337;59.536;13.468;2023-02-28T17:35:41;1.90;99.90
29341;DHT22;16337;59.536;13.468;2023-02-28T17:38:17;1.80;99.90
29341;DHT22;16337;59.536;13.468;2023-02-28T17:40:44;1.70;99.90
29341;DHT22;16337;59.536;13.468;2023-02-28T17:43:09;1.80;99.90
29341;DHT22;16337;59.536;13.468;2023-02-28T17:45:36;1.80;99.90
29341;DHT22;16337;59.536;13.468;2023-02-28T17:48:02;1.80;99.90
29341;DHT22;16337;59.536;13.468;2023-02-28T17:50:28;1.80;99.90
29341;DHT22;16337;59.536;13.468;2023-02-28T17:52:54;1.80;99.90
29341;DHT22;16337;59.536;13.468;2023-02-28T17:55:19;1.80;99.90
29341;DHT22;16337;59.536;13.468;2023-02-28T17:57:45;1.70;99.90
29341;DHT22;16337;59.536;13.468;2023-02-28T18:00:13;1.60;99.90
29341;DHT22;16337;59.536;13.468;2023-02-28T18:02:39;1.50;99.90
29341;DHT22;16337;59.536;13.468;2023-02-28T18:05:05;1.40;99.90
29341;DHT22;16337;59.536;13.468;2023-02-28T18:07:31;1.40;99.90
29341;DHT22;16337;59.536;13.468;2023-02-28T18:09:57;1.30;99.90
29341;DHT22;16337;59.536;13.468;2023-02-28T18:12:23;1.40;99.90
29341;DHT22;16337;59.536;13.468;2023-02-28T18:14:48;1.40;99.90
29341;DHT22;16337;59.536;13.468;2023-02-28T18:17:14;1.30;99.90
29341;DHT22;16337;59.536;13.468;2023-02-28T18:19:40;1.20;99.90